createdAt,value
2023-05-15T00:00:32.489Z,30.09
2023-05-15T00:01:32.543Z,30.07
2023-05-15T00:02:32.649Z,30.07
2023-05-15T00:03:32.701Z,30.11
2023-05-15T00:04:32.663Z,30.03
2023-05-15T00:05:32.730Z,30.10
2023-05-15T00:06:32.786Z,30.07
2023-05-15T00:07:32.848Z,30.08
2023-05-15T00:08:32.896Z,30.07
2023-05-15T00:09:32.956Z,30.10
2023-05-15T00:10:32.972Z,30.11
2023-05-15T00:11:32.964Z,30.11
2023-05-15T00:12:32.983Z,30.06
2023-05-15T00:13:33.043Z,30.10
2023-05-15T00:14:33.048Z,30.13
2023-05-15T00:15:33.107Z,30.04
2023-05-15T00:16:33.195Z,30.08
2023-05-15T00:17:33.267Z,30.10
2023-05-15T00:18:33.251Z,30.11
2023-05-15T00:19:33.330Z,30.13
2023-05-15T00:20:33.363Z,30.10
2023-05-15T00:21:33.405Z,30.11
2023-05-15T00:22:33.402Z,30.11
2023-05-15T00:23:33.420Z,30.13
2023-05-15T00:24:33.456Z,30.09
2023-05-15T00:25:33.528Z,30.08
2023-05-15T00:26:33.595Z,30.08
2023-05-15T00:27:33.648Z,30.08
2023-05-15T00:28:33.745Z,30.12
2023-05-15T00:29:33.703Z,30.14
2023-05-15T00:30:33.755Z,30.13
2023-05-15T00:31:33.897Z,30.13
2023-05-15T00:32:33.895Z,30.11
2023-05-15T00:33:33.897Z,30.08
2023-05-15T00:34:33.897Z,30.08
2023-05-15T00:35:33.887Z,30.08
2023-05-15T00:36:33.913Z,30.09
2023-05-15T00:37:33.969Z,30.14
2023-05-15T00:38:33.960Z,30.15
2023-05-15T00:39:33.986Z,30.14
2023-05-15T00:40:33.997Z,30.13
2023-05-15T00:41:34.070Z,30.06
2023-05-15T00:42:34.036Z,30.11
2023-05-15T00:43:34.072Z,30.15
2023-05-15T00:44:34.076Z,30.13
2023-05-15T00:45:34.078Z,30.12
2023-05-15T00:46:34.121Z,30.16
2023-05-15T00:47:34.090Z,30.09
2023-05-15T00:48:34.160Z,30.13
2023-05-15T00:49:34.107Z,30.12
2023-05-15T00:50:34.167Z,30.12
2023-05-15T00:51:34.183Z,30.15
2023-05-15T00:52:34.173Z,30.15
2023-05-15T00:53:34.254Z,30.10
2023-05-15T00:54:34.191Z,30.16
2023-05-15T00:55:34.206Z,30.13
2023-05-15T00:56:34.213Z,30.15
2023-05-15T00:57:34.202Z,30.16
2023-05-15T00:58:34.220Z,30.13
2023-05-15T00:59:34.227Z,30.14
2023-05-15T01:00:34.377Z,30.13
2023-05-15T01:01:34.377Z,30.12
2023-05-15T01:02:34.399Z,30.15
2023-05-15T01:03:34.324Z,30.18
2023-05-15T01:04:34.368Z,30.13
2023-05-15T01:05:34.367Z,30.12
2023-05-15T01:06:34.376Z,30.13
2023-05-15T01:07:34.442Z,30.09
2023-05-15T01:08:34.401Z,30.12
2023-05-15T01:09:34.393Z,30.13
2023-05-15T01:10:34.404Z,30.13
2023-05-15T01:11:34.412Z,30.12
2023-05-15T01:12:34.366Z,30.19
2023-05-15T01:13:34.380Z,30.10
2023-05-15T01:14:34.432Z,30.16
2023-05-15T01:15:34.397Z,30.20
2023-05-15T01:16:34.463Z,30.13
2023-05-15T01:17:34.410Z,30.18
2023-05-15T01:18:34.487Z,30.15
2023-05-15T01:19:34.537Z,30.16
2023-05-15T01:20:34.427Z,30.13
2023-05-15T01:21:34.438Z,30.15
2023-05-15T01:22:34.427Z,30.15
2023-05-15T01:23:34.424Z,30.16
2023-05-15T01:24:34.445Z,30.21
2023-05-15T01:25:34.433Z,30.16
2023-05-15T01:26:34.464Z,30.16
2023-05-15T01:27:34.422Z,30.17
2023-05-15T01:28:34.432Z,30.20
2023-05-15T01:29:34.430Z,30.16
2023-05-15T01:30:34.427Z,30.17
2023-05-15T01:31:34.535Z,30.15
2023-05-15T01:32:34.451Z,30.16
2023-05-15T01:33:34.405Z,30.16
2023-05-15T01:34:34.457Z,30.20
2023-05-15T01:35:34.462Z,30.17
2023-05-15T01:36:34.454Z,30.17
2023-05-15T01:37:34.470Z,30.19
2023-05-15T01:38:35.037Z,30.15
2023-05-15T01:39:34.424Z,30.19
2023-05-15T01:40:34.458Z,30.18
2023-05-15T01:41:34.461Z,30.21
2023-05-15T01:42:34.505Z,30.20
2023-05-15T01:43:34.535Z,30.17
2023-05-15T01:44:34.479Z,30.18
2023-05-15T01:45:34.521Z,30.18
2023-05-15T01:46:34.528Z,30.23
2023-05-15T01:47:34.537Z,30.23
2023-05-15T01:48:34.506Z,30.20
2023-05-15T01:49:34.460Z,30.24
2023-05-15T01:50:34.526Z,30.18
2023-05-15T01:51:34.474Z,30.20
2023-05-15T01:52:34.510Z,30.21
2023-05-15T01:53:34.514Z,30.24
2023-05-15T01:54:34.551Z,30.20
2023-05-15T01:55:34.500Z,30.20
2023-05-15T01:56:34.485Z,30.21
2023-05-15T01:57:34.526Z,30.18
2023-05-15T01:58:34.534Z,30.23
2023-05-15T01:59:34.550Z,30.23
2023-05-15T02:00:34.540Z,30.21
2023-05-15T02:01:34.597Z,30.23
2023-05-15T02:02:34.648Z,30.24
2023-05-15T02:03:34.625Z,30.21
2023-05-15T02:04:34.536Z,30.20
2023-05-15T02:05:34.575Z,30.27
2023-05-15T02:06:34.498Z,30.28
2023-05-15T02:07:34.536Z,30.24
2023-05-15T02:08:34.522Z,30.26
2023-05-15T02:09:34.516Z,30.26
2023-05-15T02:10:34.513Z,30.28
2023-05-15T02:11:34.555Z,30.22
2023-05-15T02:12:34.524Z,30.25
2023-05-15T02:13:34.590Z,30.22
2023-05-15T02:14:34.540Z,30.26
2023-05-15T02:15:34.542Z,30.20
2023-05-15T02:16:34.577Z,30.25
2023-05-15T02:17:34.586Z,30.26
2023-05-15T02:18:34.535Z,30.26
2023-05-15T02:19:34.520Z,30.28
2023-05-15T02:20:34.540Z,30.26
2023-05-15T02:21:34.557Z,30.26
2023-05-15T02:22:34.535Z,30.22
2023-05-15T02:23:34.496Z,30.22
2023-05-15T02:24:34.568Z,30.25
2023-05-15T02:25:34.543Z,30.24
2023-05-15T02:26:34.512Z,30.29
2023-05-15T02:27:34.529Z,30.22
2023-05-15T02:28:34.527Z,30.26
2023-05-15T02:29:34.537Z,30.25
2023-05-15T02:30:34.507Z,30.24
2023-05-15T02:31:34.576Z,30.25
2023-05-15T02:32:34.583Z,30.25
2023-05-15T02:33:34.573Z,30.26
2023-05-15T02:34:34.567Z,30.25
2023-05-15T02:35:34.586Z,30.25
2023-05-15T02:36:34.550Z,30.26
2023-05-15T02:37:34.588Z,30.20
2023-05-15T02:38:34.593Z,30.26
2023-05-15T02:39:34.570Z,30.24
2023-05-15T02:40:34.574Z,30.29
2023-05-15T02:41:34.587Z,30.30
2023-05-15T02:42:34.635Z,30.31
2023-05-15T02:43:34.569Z,30.22
2023-05-15T02:44:34.610Z,30.25
2023-05-15T02:45:34.623Z,30.28
2023-05-15T02:46:34.592Z,30.28
2023-05-15T02:47:34.658Z,30.29
2023-05-15T02:48:34.635Z,30.29
2023-05-15T02:49:34.642Z,30.25
2023-05-15T02:50:34.644Z,30.22
2023-05-15T02:51:34.651Z,30.25
2023-05-15T02:52:34.617Z,30.28
2023-05-15T02:53:34.667Z,30.30
2023-05-15T02:54:34.654Z,30.30
2023-05-15T02:55:34.659Z,30.28
2023-05-15T02:56:34.634Z,30.30
2023-05-15T02:57:34.686Z,30.28
2023-05-15T02:58:34.675Z,30.26
2023-05-15T02:59:34.673Z,30.29
2023-05-15T03:00:34.678Z,30.26
2023-05-15T03:01:34.696Z,30.27
2023-05-15T03:02:34.671Z,30.26
2023-05-15T03:03:34.686Z,30.33
2023-05-15T03:04:34.708Z,30.27
2023-05-15T03:05:34.678Z,30.29
2023-05-15T03:06:34.715Z,30.29
2023-05-15T03:07:34.711Z,30.30
2023-05-15T03:08:34.708Z,30.30
2023-05-15T03:09:34.698Z,30.30
2023-05-15T03:10:34.727Z,30.28
2023-05-15T03:11:34.714Z,30.33
2023-05-15T03:12:34.728Z,30.27
2023-05-15T03:13:34.757Z,30.23
2023-05-15T03:14:34.791Z,30.30
2023-05-15T03:15:34.777Z,30.27
2023-05-15T03:16:34.853Z,30.24
2023-05-15T03:17:34.809Z,30.31
2023-05-15T03:18:34.896Z,30.29
2023-05-15T03:19:34.802Z,30.36
2023-05-15T03:20:34.848Z,30.31
2023-05-15T03:21:34.825Z,30.27
2023-05-15T03:22:34.813Z,30.30
2023-05-15T03:23:37.621Z,30.30
2023-05-15T03:24:34.815Z,30.31
2023-05-15T03:25:34.811Z,30.30
2023-05-15T03:26:34.833Z,30.31
2023-05-15T03:27:34.792Z,30.29
2023-05-15T03:28:34.821Z,30.31
2023-05-15T03:29:34.772Z,30.29
2023-05-15T03:30:34.820Z,30.27
2023-05-15T03:31:34.819Z,30.33
2023-05-15T03:32:34.778Z,30.30
2023-05-15T03:33:34.761Z,30.33
2023-05-15T03:34:34.779Z,30.31
2023-05-15T03:35:34.784Z,30.30
2023-05-15T03:36:34.788Z,30.27
2023-05-15T03:37:34.726Z,30.30
2023-05-15T03:38:34.725Z,30.27
2023-05-15T03:39:34.721Z,30.34
2023-05-15T03:40:34.713Z,30.28
2023-05-15T03:41:34.735Z,30.32
2023-05-15T03:42:34.690Z,30.31
2023-05-15T03:43:34.725Z,30.37
2023-05-15T03:44:34.673Z,30.33
2023-05-15T03:45:34.666Z,30.34
2023-05-15T03:46:34.699Z,30.33
2023-05-15T03:47:34.680Z,30.33
2023-05-15T03:48:34.662Z,30.30
2023-05-15T03:49:34.635Z,30.30
2023-05-15T03:50:34.664Z,30.37
2023-05-15T03:51:34.621Z,30.34
2023-05-15T03:52:34.678Z,30.31
2023-05-15T03:53:34.614Z,30.36
2023-05-15T03:54:34.616Z,30.31
2023-05-15T03:55:34.605Z,30.30
2023-05-15T03:56:34.617Z,30.35
2023-05-15T03:57:34.629Z,30.34
2023-05-15T03:58:34.589Z,30.33
2023-05-15T03:59:34.611Z,30.30
2023-05-15T04:00:34.578Z,30.34
2023-05-15T04:01:39.320Z,30.31
2023-05-15T04:02:35.634Z,30.28
2023-05-15T04:03:34.618Z,30.25
2023-05-15T04:04:34.532Z,30.28
2023-05-15T04:05:34.592Z,30.24
2023-05-15T04:06:34.505Z,30.24
2023-05-15T04:07:34.532Z,30.25
2023-05-15T04:08:34.515Z,30.25
2023-05-15T04:09:34.522Z,30.21
2023-05-15T04:10:34.478Z,30.24
2023-05-15T04:11:34.477Z,30.17
2023-05-15T04:12:34.445Z,30.18
2023-05-15T04:13:34.497Z,30.21
2023-05-15T04:14:34.473Z,30.14
2023-05-15T04:15:34.490Z,30.16
2023-05-15T04:16:34.505Z,30.14
2023-05-15T04:17:34.419Z,30.16
2023-05-15T04:18:34.533Z,30.19
2023-05-15T04:19:34.411Z,30.16
2023-05-15T04:20:34.408Z,30.16
2023-05-15T04:21:34.450Z,30.13
2023-05-15T04:22:34.405Z,30.23
2023-05-15T04:23:34.403Z,30.16
2023-05-15T04:24:34.360Z,30.20
2023-05-15T04:25:34.411Z,30.19
2023-05-15T04:26:34.472Z,30.16
2023-05-15T04:27:34.470Z,30.23
2023-05-15T04:28:34.496Z,30.21
2023-05-15T04:29:34.540Z,30.18
2023-05-15T04:30:34.572Z,30.20
2023-05-15T04:31:34.704Z,30.17
2023-05-15T04:32:34.709Z,30.23
2023-05-15T04:33:34.714Z,30.20
2023-05-15T04:34:34.781Z,30.24
2023-05-15T04:35:34.786Z,30.26
2023-05-15T04:36:34.820Z,30.25
2023-05-15T04:37:34.870Z,30.24
2023-05-15T04:38:34.917Z,30.28
2023-05-15T04:39:34.937Z,30.24
2023-05-15T04:40:34.985Z,30.24
2023-05-15T04:41:35.038Z,30.23
2023-05-15T04:42:35.046Z,30.20
2023-05-15T04:43:35.143Z,30.24
2023-05-15T04:44:35.142Z,30.20
2023-05-15T04:45:35.168Z,30.20
2023-05-15T04:46:35.229Z,30.12
2023-05-15T04:47:35.232Z,30.19
2023-05-15T04:48:35.288Z,30.16
2023-05-15T04:49:35.255Z,30.09
2023-05-15T04:50:35.297Z,30.09
2023-05-15T04:51:35.303Z,30.12
2023-05-15T04:52:35.298Z,30.08
2023-05-15T04:53:35.330Z,30.08
2023-05-15T04:54:35.387Z,30.13
2023-05-15T04:55:35.395Z,30.13
2023-05-15T04:56:35.396Z,30.09
2023-05-15T04:57:35.452Z,30.09
2023-05-15T04:58:35.449Z,30.12
2023-05-15T04:59:35.461Z,30.11
2023-05-15T05:00:35.454Z,30.09
2023-05-15T05:01:35.531Z,30.08
2023-05-15T05:02:35.562Z,30.09
2023-05-15T05:03:35.617Z,30.12
2023-05-15T05:04:35.559Z,30.20
2023-05-15T05:05:35.611Z,30.32
2023-05-15T05:06:35.672Z,30.32
2023-05-15T05:07:35.716Z,30.41
2023-05-15T05:08:35.729Z,30.65
2023-05-15T05:09:35.765Z,30.81
2023-05-15T05:10:35.819Z,30.95
2023-05-15T05:11:35.810Z,30.94
2023-05-15T05:12:35.815Z,30.94
2023-05-15T05:13:35.798Z,31.03
2023-05-15T05:14:35.799Z,31.00
2023-05-15T05:15:35.915Z,31.07
2023-05-15T05:16:35.859Z,31.14
2023-05-15T05:17:35.977Z,31.19
2023-05-15T05:18:35.866Z,31.23
2023-05-15T05:19:35.901Z,31.33
2023-05-15T05:20:35.919Z,31.38
2023-05-15T05:21:35.923Z,31.60
2023-05-15T05:22:35.986Z,31.50
2023-05-15T05:23:36.036Z,31.82
2023-05-15T05:24:36.064Z,31.67
2023-05-15T05:25:36.080Z,31.65
2023-05-15T05:26:36.128Z,31.58
2023-05-15T05:27:36.083Z,31.68
2023-05-15T05:28:36.139Z,31.71
2023-05-15T05:29:36.183Z,31.74
2023-05-15T05:30:36.208Z,31.73
2023-05-15T05:31:36.326Z,32.33
2023-05-15T05:32:36.346Z,32.37
2023-05-15T05:33:36.325Z,32.46
2023-05-15T05:34:36.386Z,32.45
2023-05-15T05:35:36.642Z,32.52
2023-05-15T05:36:36.386Z,32.59
2023-05-15T05:37:38.135Z,32.89
2023-05-15T05:38:36.423Z,33.10
2023-05-15T05:39:36.375Z,33.09
2023-05-15T05:40:36.352Z,33.07
2023-05-15T05:41:36.516Z,33.21
2023-05-15T05:42:36.366Z,32.93
2023-05-15T05:43:36.643Z,33.15
2023-05-15T05:44:36.443Z,33.11
2023-05-15T05:45:36.355Z,33.47
2023-05-15T05:46:36.372Z,33.44
2023-05-15T05:47:36.339Z,33.76
2023-05-15T05:48:36.321Z,33.83
2023-05-15T05:49:36.326Z,33.77
2023-05-15T05:50:36.335Z,33.53
2023-05-15T05:51:36.324Z,33.37
2023-05-15T05:52:36.297Z,33.42
2023-05-15T05:53:37.598Z,33.66
2023-05-15T05:54:36.520Z,33.65
2023-05-15T05:55:36.504Z,33.68
2023-05-15T05:56:36.575Z,33.53
2023-05-15T05:57:36.534Z,33.54
2023-05-15T05:58:36.603Z,33.49
2023-05-15T05:59:36.578Z,33.46
2023-05-15T06:00:36.595Z,33.52
2023-05-15T06:01:36.608Z,33.60
2023-05-15T06:02:36.710Z,33.37
2023-05-15T06:03:36.708Z,33.25
2023-05-15T06:04:36.871Z,33.03
2023-05-15T06:05:36.738Z,32.97
2023-05-15T06:06:36.780Z,33.22
2023-05-15T06:07:36.872Z,33.09
2023-05-15T06:08:36.927Z,33.12
2023-05-15T06:09:36.918Z,32.84
2023-05-15T06:10:36.930Z,33.23
2023-05-15T06:11:36.990Z,33.10
2023-05-15T06:12:36.982Z,32.95
2023-05-15T06:13:36.936Z,32.80
2023-05-15T06:14:36.993Z,32.80
2023-05-15T06:15:37.001Z,32.86
2023-05-15T06:16:37.037Z,32.81
2023-05-15T06:17:37.144Z,32.94
2023-05-15T06:18:37.045Z,33.05
2023-05-15T06:19:37.080Z,32.96
2023-05-15T06:20:37.104Z,32.86
2023-05-15T06:21:37.659Z,32.95
2023-05-15T06:22:37.675Z,32.96
2023-05-15T06:23:37.209Z,33.48
2023-05-15T06:24:37.637Z,33.32
2023-05-15T06:25:37.671Z,33.78
2023-05-15T06:26:37.338Z,33.68
2023-05-15T06:27:37.656Z,33.79
2023-05-15T06:28:37.405Z,33.48
2023-05-15T06:29:37.633Z,33.54
2023-05-15T06:30:37.706Z,33.70
2023-05-15T06:31:37.628Z,33.44
2023-05-15T06:32:38.355Z,33.47
2023-05-15T06:33:37.598Z,33.30
2023-05-15T06:34:37.498Z,33.11
2023-05-15T06:35:37.414Z,32.97
2023-05-15T06:36:37.467Z,33.02
2023-05-15T06:37:37.682Z,33.22
2023-05-15T06:38:37.633Z,33.21
2023-05-15T06:39:37.594Z,33.22
2023-05-15T06:40:37.641Z,33.44
2023-05-15T06:41:37.717Z,33.42
2023-05-15T06:42:37.763Z,33.40
2023-05-15T06:43:38.502Z,33.35
2023-05-15T06:44:37.868Z,33.20
2023-05-15T06:45:38.649Z,33.00
2023-05-15T06:46:38.058Z,33.20
2023-05-15T06:47:38.095Z,33.06
2023-05-15T06:48:39.043Z,33.17
2023-05-15T06:49:38.155Z,32.99
2023-05-15T06:50:38.233Z,33.09
2023-05-15T06:51:38.332Z,33.06
2023-05-15T06:52:38.350Z,33.19
2023-05-15T06:53:38.394Z,33.09
2023-05-15T06:54:38.472Z,33.11
2023-05-15T06:55:38.504Z,33.07
2023-05-15T06:56:38.525Z,33.10
2023-05-15T06:57:38.593Z,33.10
2023-05-15T06:58:38.868Z,33.05
2023-05-15T06:59:39.145Z,33.12
2023-05-15T07:00:38.860Z,33.08
2023-05-15T07:01:39.189Z,33.00
2023-05-15T07:02:41.688Z,33.07
2023-05-15T07:03:38.789Z,33.06
2023-05-15T07:04:38.788Z,33.04
2023-05-15T07:05:43.640Z,33.01
2023-05-15T07:06:38.708Z,33.02
2023-05-15T07:07:39.664Z,33.02
2023-05-15T07:08:39.175Z,33.02
2023-05-15T07:09:38.704Z,33.07
2023-05-15T07:10:39.642Z,33.05
2023-05-15T07:11:38.860Z,33.04
2023-05-15T07:12:39.675Z,33.06
2023-05-15T07:13:39.157Z,33.07
2023-05-15T07:14:38.753Z,32.93
2023-05-15T07:15:38.882Z,33.03
2023-05-15T07:16:38.649Z,33.03
2023-05-15T07:17:38.795Z,33.09
2023-05-15T07:18:39.367Z,33.11
2023-05-15T07:19:38.616Z,33.09
2023-05-15T07:20:39.017Z,33.03
2023-05-15T07:21:38.694Z,33.07
2023-05-15T07:22:44.912Z,33.02
2023-05-15T07:23:39.692Z,32.97
2023-05-15T07:24:40.305Z,32.94
2023-05-15T07:25:38.665Z,32.94
2023-05-15T07:26:46.663Z,32.97
2023-05-15T07:27:39.599Z,32.94
2023-05-15T07:28:38.600Z,32.91
2023-05-15T07:29:38.644Z,32.89
2023-05-15T07:30:38.592Z,33.04
2023-05-15T07:31:38.700Z,33.13
2023-05-15T07:32:38.574Z,32.93
2023-05-15T07:33:38.580Z,32.94
2023-05-15T07:34:38.536Z,32.48
2023-05-15T07:35:38.537Z,32.63
2023-05-15T07:36:38.496Z,32.61
2023-05-15T07:37:38.500Z,32.69
2023-05-15T07:38:38.673Z,32.70
2023-05-15T07:39:38.717Z,32.72
2023-05-15T07:40:38.534Z,32.80
2023-05-15T07:41:38.570Z,32.84
2023-05-15T07:42:38.676Z,32.87
2023-05-15T07:43:38.791Z,32.90
2023-05-15T07:44:38.692Z,32.94
2023-05-15T07:45:38.851Z,32.97
2023-05-15T07:46:39.076Z,32.97
2023-05-15T07:47:38.954Z,32.95
2023-05-15T07:48:38.935Z,32.91
2023-05-15T07:49:39.008Z,32.92
2023-05-15T07:50:39.039Z,32.92
2023-05-15T07:51:39.101Z,32.97
2023-05-15T07:52:39.227Z,32.99
2023-05-15T07:53:39.162Z,33.00
2023-05-15T07:54:39.175Z,33.00
2023-05-15T07:55:39.291Z,33.02
2023-05-15T07:56:39.244Z,32.99
2023-05-15T07:57:39.286Z,33.06
2023-05-15T07:58:39.344Z,33.08
2023-05-15T07:59:39.367Z,33.02
2023-05-15T08:00:39.390Z,33.14
2023-05-15T08:01:39.422Z,33.03
2023-05-15T08:02:39.614Z,33.07
2023-05-15T08:03:39.657Z,33.16
2023-05-15T08:04:39.607Z,33.16
2023-05-15T08:05:39.554Z,33.15
2023-05-15T08:06:39.821Z,33.18
2023-05-15T08:07:39.636Z,33.22
2023-05-15T08:08:39.633Z,33.27
2023-05-15T08:09:40.219Z,33.24
2023-05-15T08:10:39.844Z,33.23
2023-05-15T08:11:40.201Z,33.20
2023-05-15T08:12:39.746Z,33.21
2023-05-15T08:13:39.868Z,33.29
2023-05-15T08:14:39.856Z,33.34
2023-05-15T08:15:39.910Z,33.38
2023-05-15T08:16:39.888Z,33.38
2023-05-15T08:17:39.974Z,33.46
2023-05-15T08:18:40.498Z,33.43
2023-05-15T08:19:39.997Z,33.43
2023-05-15T08:20:40.028Z,33.38
2023-05-15T08:21:40.043Z,33.34
2023-05-15T08:22:40.141Z,33.26
2023-05-15T08:23:40.157Z,33.26
2023-05-15T08:24:40.196Z,33.29
2023-05-15T08:25:40.162Z,33.23
2023-05-15T08:26:40.261Z,32.47
2023-05-15T08:27:40.319Z,32.08
2023-05-15T08:28:40.320Z,31.77
2023-05-15T08:29:40.405Z,30.91
2023-05-15T08:30:40.616Z,30.64
2023-05-15T08:31:40.849Z,30.44
2023-05-15T08:32:40.406Z,30.04
2023-05-15T08:33:40.411Z,30.06
2023-05-15T08:34:40.521Z,29.96
2023-05-15T08:35:40.605Z,30.08
2023-05-15T08:36:40.678Z,30.07
2023-05-15T08:37:40.688Z,30.16
2023-05-15T08:38:40.605Z,30.38
2023-05-15T08:39:40.567Z,30.53
2023-05-15T08:40:40.783Z,30.97
2023-05-15T08:41:41.250Z,31.51
2023-05-15T08:42:41.028Z,31.30
2023-05-15T08:43:40.622Z,31.51
2023-05-15T08:44:40.710Z,31.62
2023-05-15T08:45:40.639Z,31.74
2023-05-15T08:46:40.725Z,31.80
2023-05-15T08:47:40.818Z,31.70
2023-05-15T08:48:40.835Z,31.72
2023-05-15T08:50:40.911Z,31.77
2023-05-15T08:51:41.269Z,31.67
2023-05-15T08:52:41.158Z,31.50
2023-05-15T08:53:41.062Z,31.40
2023-05-15T08:54:41.185Z,31.84
2023-05-15T08:55:41.186Z,32.03
2023-05-15T08:56:41.813Z,32.23
2023-05-15T08:57:41.352Z,32.15
2023-05-15T08:58:41.363Z,32.63
2023-05-15T08:59:41.402Z,32.32
2023-05-15T09:00:41.414Z,32.19
2023-05-15T09:01:41.742Z,32.14
2023-05-15T09:02:41.632Z,32.50
2023-05-15T09:03:41.545Z,32.41
2023-05-15T09:04:41.589Z,32.30
2023-05-15T09:05:41.614Z,32.23
2023-05-15T09:06:41.579Z,32.43
2023-05-15T09:07:41.573Z,32.53
2023-05-15T09:08:41.575Z,32.49
2023-05-15T09:09:41.734Z,32.33
2023-05-15T09:10:41.690Z,32.71
2023-05-15T09:11:41.693Z,32.39
2023-05-15T09:12:41.617Z,32.76
2023-05-15T09:13:41.628Z,32.97
2023-05-15T09:14:41.740Z,32.64
2023-05-15T09:15:41.670Z,32.12
2023-05-15T09:16:41.699Z,32.44
2023-05-15T09:17:41.640Z,32.25
2023-05-15T09:18:41.802Z,31.99
2023-05-15T09:19:41.700Z,31.83
2023-05-15T09:20:41.762Z,31.92
2023-05-15T09:21:41.728Z,32.15
2023-05-15T09:22:41.805Z,31.80
2023-05-15T09:23:41.796Z,32.28
2023-05-15T09:24:41.832Z,32.22
2023-05-15T09:25:42.222Z,32.54
2023-05-15T09:26:43.754Z,32.42
2023-05-15T09:27:42.004Z,32.32
2023-05-15T09:28:42.031Z,32.15
2023-05-15T09:29:42.049Z,31.96
2023-05-15T09:30:42.041Z,31.64
2023-05-15T09:31:42.089Z,31.72
2023-05-15T09:32:42.317Z,32.29
2023-05-15T09:33:42.271Z,31.54
2023-05-15T09:34:42.014Z,31.60
2023-05-15T09:35:42.019Z,31.59
2023-05-15T09:36:42.081Z,31.69
2023-05-15T09:37:42.027Z,31.80
2023-05-15T09:38:42.037Z,31.66
2023-05-15T09:39:42.056Z,31.82
2023-05-15T09:40:42.125Z,31.90
2023-05-15T09:41:42.211Z,31.96
2023-05-15T09:42:42.168Z,32.07
2023-05-15T09:43:45.199Z,31.99
2023-05-15T09:44:42.755Z,32.09
2023-05-15T09:45:42.177Z,32.01
2023-05-15T09:46:42.271Z,32.09
2023-05-15T09:47:42.303Z,32.16
2023-05-15T09:48:42.256Z,32.22
2023-05-15T09:49:42.204Z,32.28
2023-05-15T09:50:42.176Z,32.29
2023-05-15T09:51:42.205Z,32.37
2023-05-15T09:52:42.131Z,32.18
2023-05-15T09:53:42.140Z,32.40
2023-05-15T09:54:42.136Z,32.34
2023-05-15T09:55:42.160Z,32.26
2023-05-15T09:56:42.119Z,32.27
2023-05-15T09:57:42.168Z,32.32
2023-05-15T09:58:42.149Z,32.32
2023-05-15T09:59:42.269Z,32.10
2023-05-15T10:00:48.051Z,32.32
2023-05-15T10:01:43.228Z,32.29
2023-05-15T10:02:42.128Z,32.27
2023-05-15T10:03:42.098Z,32.41
2023-05-15T10:04:42.079Z,32.19
2023-05-15T10:05:43.977Z,32.31
2023-05-15T10:06:43.197Z,32.40
2023-05-15T10:07:42.081Z,32.31
2023-05-15T10:08:42.090Z,32.35
2023-05-15T10:09:42.144Z,32.19
2023-05-15T10:10:42.221Z,32.29
2023-05-15T10:11:42.261Z,32.26
2023-05-15T10:12:42.773Z,32.34
2023-05-15T10:13:42.738Z,32.33
2023-05-15T10:14:42.445Z,32.30
2023-05-15T10:15:42.511Z,32.25
2023-05-15T10:16:42.594Z,32.21
2023-05-15T10:17:42.644Z,32.17
2023-05-15T10:18:42.685Z,32.03
2023-05-15T10:19:56.793Z,32.12
2023-05-15T10:20:43.656Z,32.06
2023-05-15T10:21:42.625Z,32.07
2023-05-15T10:22:42.628Z,31.91
2023-05-15T10:23:42.654Z,31.96
2023-05-15T10:24:42.660Z,32.00
2023-05-15T10:25:43.240Z,32.16
2023-05-15T10:26:42.635Z,31.81
2023-05-15T10:27:42.635Z,31.25
2023-05-15T10:28:44.910Z,30.63
2023-05-15T10:29:42.860Z,30.83
2023-05-15T10:30:42.710Z,30.47
2023-05-15T10:31:42.850Z,30.56
2023-05-15T10:32:42.801Z,30.64
2023-05-15T10:33:42.776Z,30.72
2023-05-15T10:34:42.775Z,30.94
2023-05-15T10:35:42.793Z,31.19
2023-05-15T10:36:43.304Z,31.39
2023-05-15T10:37:42.798Z,31.62
2023-05-15T10:38:42.810Z,31.73
2023-05-15T10:39:42.866Z,31.79
2023-05-15T10:40:42.971Z,31.93
2023-05-15T10:41:42.956Z,32.04
2023-05-15T10:42:43.169Z,32.07
2023-05-15T10:43:43.057Z,32.15
2023-05-15T10:44:43.171Z,32.18
2023-05-15T10:45:43.179Z,32.25
2023-05-15T10:46:43.228Z,32.34
2023-05-15T10:47:43.495Z,32.36
2023-05-15T10:48:43.435Z,32.39
2023-05-15T10:49:43.404Z,32.43
2023-05-15T10:50:43.444Z,32.46
2023-05-15T10:51:43.446Z,32.61
2023-05-15T10:52:43.533Z,32.57
2023-05-15T10:53:43.569Z,32.71
2023-05-15T10:54:43.643Z,32.74
2023-05-15T10:55:44.293Z,33.41
2023-05-15T10:56:43.686Z,33.33
2023-05-15T10:57:43.689Z,33.30
2023-05-15T10:58:43.762Z,33.18
2023-05-15T10:59:43.765Z,33.23
2023-05-15T11:00:43.894Z,33.23
2023-05-15T11:01:43.944Z,33.18
2023-05-15T11:02:43.854Z,33.22
2023-05-15T11:03:49.500Z,33.21
2023-05-15T11:04:44.917Z,33.23
2023-05-15T11:05:43.857Z,33.65
2023-05-15T11:06:43.924Z,33.65
2023-05-15T11:07:43.905Z,33.55
2023-05-15T11:08:43.832Z,33.71
2023-05-15T11:09:43.840Z,33.53
2023-05-15T11:10:43.876Z,33.58
2023-05-15T11:11:43.794Z,33.53
2023-05-15T11:12:43.898Z,33.41
2023-05-15T11:13:43.801Z,33.53
2023-05-15T11:14:43.833Z,33.51
2023-05-15T11:15:43.801Z,33.51
2023-05-15T11:16:43.820Z,33.64
2023-05-15T11:17:43.841Z,33.72
2023-05-15T11:18:44.338Z,33.54
2023-05-15T11:19:44.239Z,33.43
2023-05-15T11:20:43.757Z,33.29
2023-05-15T11:21:43.747Z,33.11
2023-05-15T11:22:43.724Z,33.08
2023-05-15T11:23:43.826Z,33.00
2023-05-15T11:24:43.772Z,32.90
2023-05-15T11:25:43.792Z,32.83
2023-05-15T11:26:43.886Z,32.69
2023-05-15T11:27:43.838Z,32.59
2023-05-15T11:28:43.901Z,32.43
2023-05-15T11:29:44.273Z,32.32
2023-05-15T11:30:44.089Z,32.32
2023-05-15T11:31:43.978Z,32.27
2023-05-15T11:32:44.067Z,32.11
2023-05-15T11:33:44.052Z,32.08
2023-05-15T11:34:44.105Z,32.00
2023-05-15T11:35:44.200Z,31.93
2023-05-15T11:36:44.162Z,31.87
2023-05-15T11:37:44.186Z,31.76
2023-05-15T11:38:44.243Z,31.73
2023-05-15T11:39:44.292Z,31.62
2023-05-15T11:40:44.311Z,31.52
2023-05-15T11:41:44.361Z,31.53
2023-05-15T11:42:44.338Z,31.40
2023-05-15T11:43:44.416Z,31.29
2023-05-15T11:44:44.420Z,31.18
2023-05-15T11:45:44.481Z,31.23
2023-05-15T11:46:44.512Z,31.22
2023-05-15T11:47:44.558Z,31.18
2023-05-15T11:48:44.549Z,31.18
2023-05-15T11:49:44.605Z,31.18
2023-05-15T11:50:44.641Z,31.13
2023-05-15T11:51:44.671Z,31.06
2023-05-15T11:52:44.690Z,31.07
2023-05-15T11:53:44.746Z,31.12
2023-05-15T11:54:44.786Z,31.02
2023-05-15T11:55:44.795Z,31.09
2023-05-15T11:56:44.945Z,31.10
2023-05-15T11:57:44.919Z,31.09
2023-05-15T11:58:44.959Z,31.10
2023-05-15T11:59:44.992Z,31.18
2023-05-15T12:00:45.009Z,31.07
2023-05-15T12:01:45.058Z,31.16
2023-05-15T12:02:45.863Z,31.25
2023-05-15T12:03:45.418Z,31.63
2023-05-15T12:04:45.250Z,31.67
2023-05-15T12:05:57.662Z,31.61
2023-05-15T12:06:46.288Z,31.54
2023-05-15T12:07:45.274Z,31.46
2023-05-15T12:08:45.312Z,31.75
2023-05-15T12:09:45.288Z,31.86
2023-05-15T12:10:45.235Z,32.29
2023-05-15T12:11:45.342Z,32.43
2023-05-15T12:12:45.233Z,32.43
2023-05-15T12:13:45.231Z,32.46
2023-05-15T12:14:45.243Z,32.52
2023-05-15T12:15:45.289Z,32.47
2023-05-15T12:16:45.494Z,32.43
2023-05-15T12:17:45.513Z,32.39
2023-05-15T12:18:45.523Z,32.41
2023-05-15T12:19:45.764Z,32.38
2023-05-15T12:20:45.654Z,32.42
2023-05-15T12:21:45.535Z,32.46
2023-05-15T12:22:45.590Z,32.49
2023-05-15T12:23:48.714Z,32.45
2023-05-15T12:24:46.554Z,32.58
2023-05-15T12:25:45.541Z,32.44
2023-05-15T12:26:45.526Z,32.50
2023-05-15T12:27:45.533Z,32.50
2023-05-15T12:28:45.517Z,32.50
2023-05-15T12:29:45.531Z,31.72
2023-05-15T12:30:45.535Z,32.08
2023-05-15T12:31:45.541Z,32.20
2023-05-15T12:32:45.579Z,32.16
2023-05-15T12:33:45.501Z,31.94
2023-05-15T12:34:45.491Z,31.88
2023-05-15T12:35:45.807Z,31.94
2023-05-15T12:36:45.458Z,31.83
2023-05-15T12:37:45.501Z,31.70
2023-05-15T12:38:45.421Z,32.03
2023-05-15T12:39:45.419Z,31.38
2023-05-15T12:40:45.508Z,30.94
2023-05-15T12:41:47.140Z,30.55
2023-05-15T12:42:45.449Z,30.75
2023-05-15T12:43:45.432Z,30.81
2023-05-15T12:44:45.477Z,30.63
2023-05-15T12:45:45.653Z,30.84
2023-05-15T12:46:45.568Z,30.78
2023-05-15T12:47:45.594Z,29.95
2023-05-15T12:48:45.726Z,29.61
2023-05-15T12:49:45.791Z,29.42
2023-05-15T12:50:45.911Z,29.29
2023-05-15T12:51:46.023Z,28.57
2023-05-15T12:52:46.351Z,28.52
2023-05-15T12:53:45.816Z,28.46